Time;durP1;ratioP1;P1;durP2;ratioP2;P2;SDS_P1;SDS_P2;PMS_P1;PMS_P2;Temp;Humidity;BMP_temperature;BMP_pressure;BME280_temperature;BME280_humidity;BME280_pressure;Samples;Min_cycle;Max_cycle;Signal;HPM_P1;HPM_P2
2022/06/15 00:00:23;;;;;;;4.30;2.90;;;17.50;96.70;;;;;;5070949;28;20181;-66
2022/06/15 00:02:48;;;;;;;5.47;2.90;;;17.50;97.00;;;;;;5070664;28;20200;-67
2022/06/15 00:05:14;;;;;;;3.70;3.00;;;17.50;97.40;;;;;;5072074;28;20184;-66
2022/06/15 00:07:39;;;;;;;3.28;2.95;;;17.40;97.50;;;;;;5075199;28;20192;-66
2022/06/15 00:10:07;;;;;;;3.70;2.78;;;17.30;97.70;;;;;;5074815;28;20196;-66
2022/06/15 00:12:35;;;;;;;4.32;2.70;;;17.30;98.10;;;;;;5074362;28;20177;-65
2022/06/15 00:15:00;;;;;;;6.93;3.10;;;17.30;97.90;;;;;;5074709;28;20215;-66
2022/06/15 00:17:26;;;;;;;2.63;2.35;;;17.40;98.10;;;;;;5074261;28;20212;-65
2022/06/15 00:19:51;;;;;;;8.00;3.53;;;17.30;98.20;;;;;;5073943;28;20220;-66
2022/06/15 00:22:17;;;;;;;6.47;3.90;;;17.30;98.20;;;;;;5073935;28;20254;-65
2022/06/15 00:24:42;;;;;;;17.90;7.30;;;17.30;97.50;;;;;;5074428;28;20220;-65
2022/06/15 00:27:08;;;;;;;15.85;7.28;;;17.30;97.40;;;;;;5074646;28;20200;-65
2022/06/15 00:29:37;;;;;;;17.30;7.15;;;17.30;97.40;;;;;;5061865;28;20181;-65
2022/06/15 00:32:04;;;;;;;17.73;7.72;;;17.30;97.30;;;;;;5074187;28;20185;-65
2022/06/15 00:34:29;;;;;;;18.30;7.30;;;17.30;97.20;;;;;;5073395;28;20185;-65
2022/06/15 00:36:55;;;;;;;11.30;5.53;;;17.30;97.20;;;;;;5073918;28;20537;-65
2022/06/15 00:39:20;;;;;;;8.15;4.10;;;17.30;97.20;;;;;;5074107;28;20196;-65
2022/06/15 00:41:46;;;;;;;5.25;3.28;;;17.30;97.00;;;;;;5073649;28;20643;-65
2022/06/15 00:44:21;;;;;;;3.45;2.90;;;17.30;96.90;;;;;;5072509;28;20213;-65
2022/06/15 00:46:55;;;;;;;4.63;2.75;;;17.30;96.70;;;;;;5074501;28;20173;-65
2022/06/15 00:49:35;;;;;;;3.60;2.63;;;17.20;96.50;;;;;;5073404;28;20208;-65
2022/06/15 00:52:12;;;;;;;5.80;2.75;;;17.20;96.60;;;;;;5073442;28;20236;-65
2022/06/15 00:54:38;;;;;;;4.20;2.95;;;17.10;97.00;;;;;;5069477;28;20187;-65
2022/06/15 00:57:05;;;;;;;5.35;3.10;;;17.10;97.70;;;;;;5074059;28;20185;-66
2022/06/15 00:59:53;;;;;;;5.45;2.90;;;17.10;98.40;;;;;;5074111;28;20253;-66
2022/06/15 01:02:19;;;;;;;9.45;4.78;;;17.10;98.70;;;;;;5072012;28;20231;-65
2022/06/15 01:05:10;;;;;;;7.95;3.67;;;17.10;98.80;;;;;;5073263;28;20830;-65
2022/06/15 01:07:54;;;;;;;14.45;5.97;;;17.00;98.70;;;;;;5071090;28;20199;-65
2022/06/15 01:10:28;;;;;;;59.78;20.13;;;17.00;98.80;;;;;;5073275;28;20180;-65
2022/06/15 01:13:00;;;;;;;32.28;12.32;;;17.00;98.80;;;;;;5073317;28;20176;-65
2022/06/15 01:15:44;;;;;;;25.15;10.50;;;17.00;98.50;;;;;;5073427;28;20267;-67
2022/06/15 01:18:26;;;;;;;18.75;8.35;;;16.90;98.30;;;;;;5073012;28;20272;-65
2022/06/15 01:21:17;;;;;;;11.43;5.40;;;16.90;98.30;;;;;;5072438;28;20701;-65
2022/06/15 01:24:22;;;;;;;16.00;6.25;;;16.80;98.20;;;;;;5072476;28;20216;-65
2022/06/15 01:26:56;;;;;;;12.30;5.30;;;16.80;98.50;;;;;;5073342;28;20181;-64
2022/06/15 01:29:47;;;;;;;6.38;4.03;;;16.80;99.00;;;;;;5072880;28;20590;-66
2022/06/15 01:32:24;;;;;;;5.90;3.45;;;16.80;99.80;;;;;;5072692;28;20781;-65
2022/06/15 01:34:56;;;;;;;5.78;3.40;;;16.70;99.90;;;;;;5071995;28;20540;-65
2022/06/15 01:37:40;;;;;;;5.43;3.50;;;16.70;99.90;;;;;;5072511;28;20173;-65
2022/06/15 01:40:33;;;;;;;7.30;3.65;;;16.70;99.90;;;;;;5072681;28;20188;-65
2022/06/15 01:43:14;;;;;;;4.70;3.40;;;16.60;99.90;;;;;;5069541;28;20236;-65
2022/06/15 01:45:42;;;;;;;8.55;3.50;;;16.50;99.90;;;;;;5066823;28;20647;-65
2022/06/15 01:48:11;;;;;;;5.47;3.53;;;16.50;99.90;;;;;;5072542;28;20245;-65
2022/06/15 01:50:40;;;;;;;3.22;2.85;;;16.40;99.90;;;;;;5071837;28;20177;-65
2022/06/15 01:53:16;;;;;;;6.60;3.22;;;16.40;99.90;;;;;;5072442;28;20267;-65
2022/06/15 01:55:53;;;;;;;6.00;3.10;;;16.40;99.90;;;;;;5072661;28;20184;-65
2022/06/15 01:58:22;;;;;;;4.93;3.20;;;16.40;99.90;;;;;;5072975;28;20214;-65
2022/06/15 02:00:59;;;;;;;4.25;2.80;;;16.30;99.90;;;;;;5072411;28;20200;-63
2022/06/15 02:03:43;;;;;;;4.07;2.88;;;16.30;99.90;;;;;;5070055;28;20236;-63
2022/06/15 02:06:38;;;;;;;3.05;2.67;;;16.20;99.90;;;;;;5072989;28;20211;-64
2022/06/15 02:09:33;;;;;;;8.93;3.10;;;16.10;99.90;;;;;;5072180;28;20202;-63
2022/06/15 02:12:02;;;;;;;4.55;2.90;;;16.00;99.90;;;;;;5070836;28;20191;-63
2022/06/15 02:14:56;;;;;;;3.85;3.00;;;15.90;99.90;;;;;;5071891;28;20195;-63
2022/06/15 02:17:28;;;;;;;3.25;2.72;;;15.90;99.90;;;;;;5071836;28;20188;-64
2022/06/15 02:19:59;;;;;;;4.97;3.10;;;15.80;99.90;;;;;;5071995;28;20228;-63
2022/06/15 02:22:30;;;;;;;4.05;3.17;;;15.80;99.90;;;;;;5071341;28;20628;-63
2022/06/15 02:24:58;;;;;;;6.60;3.00;;;15.80;99.90;;;;;;5072201;28;20180;-63
2022/06/15 02:27:26;;;;;;;4.80;2.80;;;15.80;99.90;;;;;;5071246;28;20694;-64
2022/06/15 02:29:56;;;;;;;3.42;2.50;;;15.70;99.90;;;;;;5071079;28;20525;-63
2022/06/15 02:32:24;;;;;;;4.63;2.78;;;15.70;99.90;;;;;;5071982;28;20211;-63
2022/06/15 02:34:49;;;;;;;5.72;2.97;;;15.70;99.90;;;;;;5071888;28;20238;-63
2022/06/15 02:37:15;;;;;;;5.70;2.67;;;15.70;99.90;;;;;;5071899;28;20632;-64
2022/06/15 02:39:40;;;;;;;3.25;2.72;;;15.70;99.90;;;;;;5071618;28;20181;-64
2022/06/15 02:42:31;;;;;;;5.53;3.00;;;15.70;99.90;;;;;;5071419;28;20185;-63
2022/06/15 02:45:00;;;;;;;4.82;2.85;;;15.60;99.90;;;;;;5071550;28;20668;-64
2022/06/15 02:47:30;;;;;;;3.40;2.65;;;15.60;99.90;;;;;;5070243;28;20185;-65
2022/06/15 02:49:56;;;;;;;7.53;2.92;;;15.70;99.90;;;;;;5070222;28;20193;-64
2022/06/15 02:52:35;;;;;;;3.05;2.83;;;15.70;99.90;;;;;;5070409;28;20177;-65
2022/06/15 02:55:02;;;;;;;4.50;3.42;;;15.60;99.90;;;;;;5061577;28;20195;-64
2022/06/15 02:57:27;;;;;;;4.57;3.70;;;15.50;99.90;;;;;;5070024;28;20268;-65
2022/06/15 02:59:53;;;;;;;4.18;3.45;;;15.50;99.90;;;;;;5071979;28;20268;-64
2022/06/15 03:02:19;;;;;;;5.93;3.35;;;15.40;99.90;;;;;;5070149;28;20176;-65
2022/06/15 03:04:46;;;;;;;4.57;2.80;;;15.40;99.90;;;;;;5071453;28;20213;-64
2022/06/15 03:07:13;;;;;;;8.10;3.10;;;15.30;99.90;;;;;;5070415;28;20651;-64
2022/06/15 03:09:40;;;;;;;6.90;3.00;;;15.20;99.90;;;;;;5070981;28;20206;-65
2022/06/15 03:12:06;;;;;;;4.35;2.90;;;15.10;99.90;;;;;;5071333;28;20586;-64
2022/06/15 03:14:33;;;;;;;3.75;2.90;;;15.10;99.90;;;;;;5071864;28;20181;-65
2022/06/15 03:16:59;;;;;;;4.97;3.00;;;15.10;99.90;;;;;;5071498;28;20211;-64
2022/06/15 03:19:25;;;;;;;5.05;2.78;;;15.10;99.90;;;;;;5071025;28;20691;-65
2022/06/15 03:21:50;;;;;;;4.47;2.90;;;15.20;99.90;;;;;;5070758;28;20520;-64
2022/06/15 03:24:16;;;;;;;5.32;3.00;;;15.20;99.90;;;;;;5071502;28;20299;-64
2022/06/15 03:26:42;;;;;;;5.53;2.90;;;15.20;99.90;;;;;;5071110;28;20231;-64
2022/06/15 03:29:08;;;;;;;4.35;2.92;;;15.20;99.90;;;;;;5071673;28;20193;-64
2022/06/15 03:31:34;;;;;;;4.30;2.50;;;15.20;99.90;;;;;;5071238;28;20234;-64
2022/06/15 03:33:59;;;;;;;2.55;2.35;;;15.10;99.90;;;;;;5071683;28;20582;-64
2022/06/15 03:36:25;;;;;;;3.90;2.60;;;15.10;99.90;;;;;;5070125;28;20177;-65
2022/06/15 03:38:51;;;;;;;3.80;2.70;;;15.10;99.90;;;;;;5071162;28;20211;-64
2022/06/15 03:41:18;;;;;;;4.88;2.50;;;15.00;99.90;;;;;;5074677;28;20270;-65
2022/06/15 03:43:44;;;;;;;4.03;2.78;;;14.90;99.90;;;;;;5074892;28;20686;-64
2022/06/15 03:46:11;;;;;;;3.72;2.60;;;14.80;99.90;;;;;;5075334;28;20586;-64
2022/06/15 03:48:37;;;;;;;5.47;2.80;;;14.80;99.90;;;;;;5075017;28;20268;-64
2022/06/15 03:51:03;;;;;;;4.88;2.90;;;14.70;99.90;;;;;;5074320;28;20715;-65
2022/06/15 03:53:28;;;;;;;2.75;2.55;;;14.70;99.90;;;;;;5075609;28;20256;-65
2022/06/15 03:55:54;;;;;;;4.75;3.10;;;14.70;99.90;;;;;;5075288;28;20181;-65
2022/06/15 03:58:20;;;;;;;5.65;2.83;;;14.60;99.90;;;;;;5075146;28;20594;-64
2022/06/15 04:00:46;;;;;;;3.97;2.97;;;14.60;99.90;;;;;;5074454;28;20579;-64
2022/06/15 04:03:12;;;;;;;3.40;2.72;;;14.50;99.90;;;;;;5064581;28;20683;-63
2022/06/15 04:05:44;;;;;;;3.80;2.55;;;14.50;99.90;;;;;;5073791;28;20263;-64
2022/06/15 04:11:06;;;;;;;3.20;2.75;;;14.50;99.90;;;;;;5064194;28;20752;-64
2022/06/15 04:13:31;;;;;;;3.65;2.88;;;14.60;99.90;;;;;;5075026;28;20184;-64
2022/06/15 04:15:57;;;;;;;5.57;2.72;;;14.70;99.90;;;;;;5074885;28;20195;-65
2022/06/15 04:18:22;;;;;;;7.18;2.70;;;14.90;99.90;;;;;;5073970;28;20593;-65
2022/06/15 04:20:48;;;;;;;4.55;2.97;;;15.30;99.90;;;;;;5074433;28;20210;-63
2022/06/15 04:23:16;;;;;;;4.30;2.92;;;15.70;99.90;;;;;;5070848;28;20547;-67
2022/06/15 04:25:50;;;;;;;3.88;2.75;;;16.10;99.90;;;;;;5074411;28;20537;-65
2022/06/15 04:28:16;;;;;;;3.92;2.83;;;16.60;99.90;;;;;;5074819;28;20188;-65
2022/06/15 04:30:41;;;;;;;3.65;2.90;;;17.00;99.90;;;;;;5074520;28;20727;-64
2022/06/15 04:33:09;;;;;;;4.90;2.95;;;17.50;99.50;;;;;;5074135;28;20188;-63
2022/06/15 04:35:35;;;;;;;4.25;2.50;;;17.90;98.80;;;;;;5074519;28;20262;-64
2022/06/15 04:38:01;;;;;;;4.43;2.80;;;18.30;98.30;;;;;;5073036;28;20611;-64
2022/06/15 04:40:27;;;;;;;4.57;2.60;;;18.70;97.40;;;;;;5074381;28;20177;-66
2022/06/15 04:42:52;;;;;;;3.63;2.80;;;19.00;96.70;;;;;;5074577;28;20212;-65
2022/06/15 04:45:18;;;;;;;5.28;2.80;;;19.40;96.10;;;;;;5091216;28;20176;-65
2022/06/15 04:47:44;;;;;;;4.60;2.70;;;19.80;95.40;;;;;;5076227;28;20177;-65
2022/06/15 04:50:13;;;;;;;5.00;2.80;;;20.30;94.50;;;;;;5074447;28;20181;-65
2022/06/15 04:52:41;;;;;;;3.65;2.85;;;20.70;93.60;;;;;;5074336;28;20180;-66
2022/06/15 04:55:08;;;;;;;4.85;3.33;;;21.10;92.30;;;;;;5074422;28;20645;-65
2022/06/15 04:57:33;;;;;;;3.78;2.80;;;21.60;91.50;;;;;;5074477;28;20246;-65
2022/06/15 04:59:59;;;;;;;4.57;2.40;;;22.00;90.50;;;;;;5074318;28;20628;-66
2022/06/15 05:02:24;;;;;;;3.47;2.80;;;22.30;89.50;;;;;;5074329;28;20173;-65
2022/06/15 05:04:50;;;;;;;3.85;2.33;;;22.70;87.30;;;;;;5074260;28;20262;-65
2022/06/15 05:07:15;;;;;;;3.13;2.80;;;23.00;85.40;;;;;;5074279;28;20267;-65
2022/06/15 05:09:41;;;;;;;4.28;2.60;;;23.30;83.30;;;;;;5074370;28;20192;-65
2022/06/15 05:12:07;;;;;;;5.40;2.60;;;23.70;81.70;;;;;;5074012;28;20204;-65
2022/06/15 05:14:32;;;;;;;3.28;2.33;;;23.90;79.90;;;;;;5074332;28;20543;-65
2022/06/15 05:16:58;;;;;;;3.10;2.67;;;24.20;78.60;;;;;;5074026;28;20628;-66
2022/06/15 05:19:23;;;;;;;3.38;2.58;;;24.50;76.90;;;;;;5073851;28;20216;-65
2022/06/15 05:21:49;;;;;;;5.32;2.65;;;24.80;75.50;;;;;;5073955;28;20173;-64
2022/06/15 05:24:14;;;;;;;5.13;2.80;;;25.30;73.90;;;;;;5073974;28;20220;-65
2022/06/15 05:26:40;;;;;;;4.60;2.50;;;25.50;71.80;;;;;;5073898;28;20601;-66
2022/06/15 05:29:06;;;;;;;3.45;2.30;;;25.80;70.50;;;;;;5073977;28;20195;-65
2022/06/15 05:31:34;;;;;;;5.70;2.72;;;26.10;69.60;;;;;;5073888;28;20191;-65
2022/06/15 05:33:59;;;;;;;3.78;2.55;;;26.60;68.30;;;;;;5073576;28;20205;-65
2022/06/15 05:36:28;;;;;;;2.88;2.50;;;27.00;66.10;;;;;;5073662;28;20208;-66
2022/06/15 05:38:54;;;;;;;5.90;2.50;;;27.50;64.50;;;;;;5073484;28;20216;-65
2022/06/15 05:41:20;;;;;;;4.93;2.65;;;27.80;63.20;;;;;;5073686;28;20579;-65
2022/06/15 05:43:51;;;;;;;2.92;2.50;;;28.20;61.00;;;;;;5073565;28;20270;-65
2022/06/15 05:46:27;;;;;;;4.55;2.63;;;28.60;60.40;;;;;;5073425;28;20175;-66
2022/06/15 05:48:57;;;;;;;4.45;2.35;;;29.10;59.50;;;;;;5073387;28;20169;-65
2022/06/15 05:51:23;;;;;;;3.67;2.60;;;29.60;58.20;;;;;;5073391;28;20169;-66
2022/06/15 05:53:49;;;;;;;4.82;2.60;;;30.00;56.90;;;;;;5073234;28;20624;-65
2022/06/15 05:56:16;;;;;;;4.95;2.72;;;30.40;56.10;;;;;;5073264;28;20169;-65
2022/06/15 05:58:41;;;;;;;4.72;2.20;;;30.70;54.80;;;;;;5073338;28;20207;-66
2022/06/15 06:01:23;;;;;;;6.72;2.58;;;30.90;53.30;;;;;;5072991;28;20643;-66
2022/06/15 06:03:48;;;;;;;2.97;2.25;;;31.30;51.90;;;;;;5072285;28;20238;-65
2022/06/15 06:06:13;;;;;;;6.25;2.28;;;31.60;50.90;;;;;;5073019;28;20271;-66
2022/06/15 06:08:39;;;;;;;6.65;2.20;;;31.70;49.20;;;;;;5072937;28;20169;-66
2022/06/15 06:11:04;;;;;;;3.60;2.28;;;31.70;48.40;;;;;;5072977;28;20188;-66
2022/06/15 06:13:30;;;;;;;3.20;2.35;;;31.30;48.40;;;;;;5072884;28;20180;-66
2022/06/15 06:15:56;;;;;;;4.88;2.17;;;31.00;48.80;;;;;;5072885;28;20169;-66
2022/06/15 06:18:25;;;;;;;3.08;2.10;;;31.00;49.30;;;;;;5072973;28;20188;-66
2022/06/15 06:20:51;;;;;;;3.80;2.25;;;31.30;49.10;;;;;;5072600;28;20228;-65
2022/06/15 06:23:17;;;;;;;3.55;2.25;;;31.70;48.80;;;;;;5072559;28;20226;-66
2022/06/15 06:25:44;;;;;;;3.95;2.67;;;32.10;48.90;;;;;;5072717;28;20176;-66
2022/06/15 06:28:27;;;;;;;4.07;2.47;;;32.60;49.00;;;;;;5072655;28;20255;-66
2022/06/15 06:30:53;;;;;;;2.65;2.33;;;33.20;48.20;;;;;;5072594;28;20251;-66
2022/06/15 06:33:18;;;;;;;4.90;2.45;;;33.70;47.60;;;;;;5071297;28;20212;-66
2022/06/15 06:35:45;;;;;;;3.33;2.20;;;34.10;46.80;;;;;;5072649;28;20248;-66
2022/06/15 06:38:12;;;;;;;4.75;2.38;;;34.50;46.10;;;;;;5072343;28;20180;-66
2022/06/15 06:40:37;;;;;;;2.22;2.08;;;34.70;45.50;;;;;;5072570;28;20207;-66
2022/06/15 06:43:03;;;;;;;2.90;2.25;;;34.70;43.60;;;;;;5072414;28;20199;-66
2022/06/15 06:45:28;;;;;;;4.28;2.30;;;34.90;43.90;;;;;;5072479;28;20691;-66
2022/06/15 06:47:56;;;;;;;4.20;2.40;;;35.20;42.60;;;;;;5072372;28;20497;-66
2022/06/15 06:50:22;;;;;;;2.33;2.10;;;35.20;42.10;;;;;;5072474;28;20253;-66
2022/06/15 06:52:48;;;;;;;4.45;2.15;;;35.40;41.60;;;;;;5072348;28;20754;-66
2022/06/15 06:55:13;;;;;;;3.22;2.05;;;35.50;41.50;;;;;;5072291;28;20229;-66
2022/06/15 06:57:39;;;;;;;4.80;2.65;;;35.90;40.90;;;;;;5072356;28;20165;-66
2022/06/15 07:00:05;;;;;;;5.28;2.67;;;35.80;40.90;;;;;;5072221;28;20662;-66
2022/06/15 07:02:31;;;;;;;3.30;2.20;;;35.70;41.70;;;;;;5072355;28;20180;-66
2022/06/15 07:04:56;;;;;;;2.75;2.05;;;35.60;41.40;;;;;;5070813;28;20542;-66
2022/06/15 07:07:22;;;;;;;3.45;2.15;;;35.70;40.80;;;;;;5072224;28;20164;-66
2022/06/15 07:09:48;;;;;;;5.63;2.35;;;36.10;40.30;;;;;;5071010;28;20267;-65
2022/06/15 07:12:13;;;;;;;4.03;2.13;;;36.40;39.40;;;;;;5072161;28;20203;-67
2022/06/15 07:14:39;;;;;;;3.65;2.33;;;36.50;39.90;;;;;;5072084;28;20262;-66
2022/06/15 07:17:04;;;;;;;3.45;2.13;;;36.80;39.70;;;;;;5072098;28;20168;-66
2022/06/15 07:19:30;;;;;;;4.45;2.30;;;37.10;39.20;;;;;;5071960;28;20297;-66
2022/06/15 07:21:55;;;;;;;4.47;2.08;;;37.30;39.10;;;;;;5071952;28;20176;-66
2022/06/15 07:24:21;;;;;;;6.10;2.25;;;37.60;38.70;;;;;;5072018;28;20315;-66
2022/06/15 07:26:47;;;;;;;3.08;2.20;;;37.90;38.10;;;;;;5072253;28;20180;-65
2022/06/15 07:29:16;;;;;;;2.17;1.90;;;38.10;38.10;;;;;;5072295;28;20234;-67
2022/06/15 07:31:45;;;;;;;3.70;2.30;;;38.10;38.00;;;;;;5071967;28;20179;-66
2022/06/15 07:34:12;;;;;;;3.20;2.20;;;38.00;37.60;;;;;;5071880;28;20577;-66
2022/06/15 07:36:46;;;;;;;3.40;2.13;;;38.00;38.00;;;;;;5071840;28;20233;-66
2022/06/15 07:39:19;;;;;;;4.20;2.50;;;38.00;37.30;;;;;;5071835;28;20183;-66
2022/06/15 07:41:45;;;;;;;3.75;2.08;;;38.10;38.00;;;;;;5071780;28;20228;-67
2022/06/15 07:44:10;;;;;;;4.82;2.35;;;38.30;37.60;;;;;;5071692;28;20306;-66
2022/06/15 07:46:36;;;;;;;4.63;2.10;;;38.20;37.50;;;;;;5071735;28;20200;-66
2022/06/15 07:52:00;;;;;;;3.58;2.10;;;37.30;38.70;;;;;;5071966;28;20199;-66
2022/06/15 07:54:27;;;;;;;4.63;2.08;;;37.20;38.30;;;;;;5071875;28;20530;-67
2022/06/15 07:56:54;;;;;;;2.25;2.05;;;36.60;39.20;;;;;;5071757;28;20287;-66
2022/06/15 07:59:20;;;;;;;2.67;2.20;;;36.40;40.10;;;;;;5071747;28;20176;-67
2022/06/15 08:01:46;;;;;;;2.53;2.30;;;36.60;39.80;;;;;;5071813;28;20176;-67
2022/06/15 08:04:13;;;;;;;4.20;2.35;;;36.90;39.60;;;;;;5071634;28;20606;-67
2022/06/15 08:06:42;;;;;;;3.15;1.85;;;37.00;38.50;;;;;;5071735;28;20184;-66
2022/06/15 08:09:09;;;;;;;6.40;2.13;;;37.10;38.70;;;;;;5071514;28;20180;-67
2022/06/15 08:11:39;;;;;;;5.10;2.10;;;37.20;38.20;;;;;;5071587;28;20183;-66
2022/06/15 08:14:05;;;;;;;3.83;2.28;;;37.30;39.40;;;;;;5071629;28;20692;-66
2022/06/15 08:16:32;;;;;;;3.22;2.35;;;37.60;39.20;;;;;;5071543;28;20184;-67
2022/06/15 08:19:01;;;;;;;2.92;2.25;;;37.50;38.30;;;;;;5071325;28;20224;-66
2022/06/15 08:21:30;;;;;;;2.28;2.10;;;37.30;39.50;;;;;;5071536;28;20658;-66
2022/06/15 08:23:57;;;;;;;3.95;2.22;;;37.40;39.60;;;;;;5071260;28;20660;-66
2022/06/15 08:26:28;;;;;;;4.47;2.28;;;37.50;39.30;;;;;;5073076;28;20182;-66
2022/06/15 08:28:58;;;;;;;4.10;2.35;;;37.60;38.60;;;;;;5075031;28;20237;-66
2022/06/15 08:31:24;;;;;;;3.55;2.10;;;37.60;39.50;;;;;;5074872;28;20702;-67
2022/06/15 08:33:49;;;;;;;4.18;2.40;;;37.60;39.90;;;;;;5074938;28;20276;-66
2022/06/15 08:36:15;;;;;;;4.90;2.40;;;37.60;38.50;;;;;;5074905;28;20275;-66
2022/06/15 08:38:41;;;;;;;2.95;2.35;;;37.40;38.50;;;;;;5074829;28;20392;-66
2022/06/15 08:41:40;;;;;;;4.75;2.92;;;37.00;40.30;;;;;;5074990;28;20176;-66
2022/06/15 08:44:38;;;;;;;3.90;2.53;;;36.70;40.10;;;;;;5074559;28;20299;-66
2022/06/15 08:47:06;;;;;;;8.68;2.60;;;36.50;39.50;;;;;;5064856;28;20726;-66
2022/06/15 08:50:16;;;;;;;2.97;2.00;;;36.10;40.20;;;;;;5074737;28;20661;-66
2022/06/15 08:52:49;;;;;;;4.47;2.33;;;35.80;40.20;;;;;;5073368;28;20192;-66
2022/06/15 08:55:45;;;;;;;5.22;2.50;;;35.80;41.70;;;;;;5074502;28;20188;-66
2022/06/15 08:58:33;;;;;;;4.38;2.20;;;35.60;41.30;;;;;;5074171;28;20263;-67
2022/06/15 09:01:28;;;;;;;2.72;2.50;;;35.20;41.70;;;;;;5074352;28;20186;-67
2022/06/15 09:04:02;;;;;;;6.28;2.30;;;35.00;41.20;;;;;;5074331;28;20295;-67
2022/06/15 09:06:46;;;;;;;3.72;2.55;;;35.00;42.70;;;;;;5074432;28;20297;-67
2022/06/15 09:09:33;;;;;;;3.05;2.30;;;34.80;42.80;;;;;;5074304;28;20602;-67
2022/06/15 09:15:29;;;;;;;4.22;2.25;;;35.00;42.90;;;;;;5074428;28;20596;-67
2022/06/15 09:17:58;;;;;;;3.35;2.35;;;35.00;42.40;;;;;;5072797;28;20188;-65
2022/06/15 09:20:28;;;;;;;2.80;2.50;;;35.10;43.30;;;;;;5073752;28;20223;-66
2022/06/15 09:23:08;;;;;;;3.72;2.00;;;35.20;41.40;;;;;;5073955;28;20180;-66
2022/06/15 09:25:53;;;;;;;4.15;2.10;;;35.30;42.40;;;;;;5074075;28;20544;-66
2022/06/15 09:28:28;;;;;;;4.68;2.78;;;35.50;42.00;;;;;;5073779;28;20255;-66
2022/06/15 09:30:58;;;;;;;3.53;2.05;;;35.80;41.60;;;;;;5073927;28;20220;-65
2022/06/15 09:33:29;;;;;;;3.92;2.33;;;35.50;42.10;;;;;;5073824;28;20173;-66
2022/06/15 09:36:02;;;;;;;2.40;2.20;;;35.40;42.80;;;;;;5073562;28;20177;-66
2022/06/15 09:38:30;;;;;;;4.10;2.30;;;35.40;42.40;;;;;;5072542;28;20180;-65
2022/06/15 09:41:02;;;;;;;3.30;2.30;;;35.70;42.40;;;;;;5073356;28;20213;-66
2022/06/15 09:43:46;;;;;;;4.72;2.15;;;35.80;41.40;;;;;;5073590;28;20211;-66
2022/06/15 09:46:28;;;;;;;3.15;2.30;;;35.60;39.90;;;;;;5073496;28;20176;-66
2022/06/15 09:49:28;;;;;;;4.53;2.10;;;35.50;39.40;;;;;;5073490;28;20191;-66
2022/06/15 09:52:07;;;;;;;2.70;1.95;;;35.70;40.30;;;;;;5073466;28;20326;-66
2022/06/15 09:54:42;;;;;;;3.13;2.20;;;35.60;40.60;;;;;;5073459;28;20179;-66
2022/06/15 09:57:09;;;;;;;2.40;2.10;;;35.40;39.80;;;;;;5073266;28;20238;-66
2022/06/15 09:59:34;;;;;;;3.88;2.10;;;35.10;40.20;;;;;;5072024;28;20172;-66
2022/06/15 10:02:04;;;;;;;3.13;2.20;;;34.80;39.40;;;;;;5073098;28;20180;-66
2022/06/15 10:04:34;;;;;;;3.95;2.50;;;34.60;40.80;;;;;;5073155;28;20270;-66
2022/06/15 10:07:09;;;;;;;2.90;2.10;;;34.80;41.10;;;;;;5073063;28;20251;-66
2022/06/15 10:09:39;;;;;;;3.40;1.90;;;35.20;40.90;;;;;;5073250;28;20184;-66
2022/06/15 10:12:56;;;;;;;3.58;2.20;;;34.80;37.40;;;;;;5073005;28;20659;-66
2022/06/15 10:15:23;;;;;;;5.03;1.88;;;34.60;39.00;;;;;;5072822;28;20663;-66
2022/06/15 10:17:56;;;;;;;3.65;2.05;;;34.60;39.30;;;;;;5072896;28;20539;-65
2022/06/15 10:20:30;;;;;;;2.70;1.80;;;34.50;39.80;;;;;;5072733;28;20587;-66
2022/06/15 10:22:57;;;;;;;2.17;1.83;;;34.00;41.00;;;;;;5072647;28;20195;-67
2022/06/15 10:25:26;;;;;;;2.70;1.90;;;34.20;41.30;;;;;;5071554;28;20176;-66
2022/06/15 10:28:07;;;;;;;3.33;1.88;;;34.60;41.50;;;;;;5072948;28;20180;-66
2022/06/15 10:30:32;;;;;;;3.80;2.20;;;34.80;40.00;;;;;;5072618;28;20176;-66
2022/06/15 10:33:12;;;;;;;2.50;2.13;;;34.90;41.30;;;;;;5072531;28;20255;-66
2022/06/15 10:35:37;;;;;;;2.70;2.10;;;34.50;40.70;;;;;;5072579;28;20222;-65
2022/06/15 10:38:10;;;;;;;1.80;1.67;;;34.50;42.90;;;;;;5072530;28;20176;-66
2022/06/15 10:40:37;;;;;;;3.50;2.10;;;34.10;41.30;;;;;;5072614;28;20208;-65
2022/06/15 10:43:15;;;;;;;3.00;1.90;;;34.00;40.50;;;;;;5072430;28;22062;-66
2022/06/15 10:45:54;;;;;;;2.38;2.17;;;34.10;40.60;;;;;;5072653;28;20219;-66
2022/06/15 10:48:31;;;;;;;3.30;2.28;;;34.20;40.80;;;;;;5071852;28;20608;-65
2022/06/15 10:51:16;;;;;;;2.75;2.10;;;34.40;41.30;;;;;;5072363;28;20164;-66
2022/06/15 10:53:44;;;;;;;2.25;2.05;;;34.30;41.00;;;;;;5072501;28;20168;-65
2022/06/15 11:02:33;;;;;;;4.10;2.17;;;35.00;41.20;;;;;;5072550;28;20328;-66
2022/06/15 11:05:10;;;;;;;3.03;2.30;;;35.20;41.40;;;;;;5072059;28;20204;-67
2022/06/15 11:07:50;;;;;;;4.07;2.50;;;34.90;41.30;;;;;;5072193;28;20187;-65
2022/06/15 11:10:31;;;;;;;2.30;2.10;;;34.50;42.10;;;;;;5072043;28;20202;-64
2022/06/15 11:13:00;;;;;;;3.45;2.08;;;34.50;43.60;;;;;;5072151;28;20713;-64
2022/06/15 11:18:33;;;;;;;2.78;2.00;;;35.10;41.90;;;;;;5072208;28;20186;-64
2022/06/15 11:21:14;;;;;;;5.07;2.33;;;35.50;41.70;;;;;;5071895;28;20633;-64
2022/06/15 11:24:01;;;;;;;3.25;2.20;;;35.50;40.70;;;;;;5071867;28;20216;-64
2022/06/15 11:26:52;;;;;;;2.22;2.03;;;35.30;41.40;;;;;;5072086;28;20172;-65
2022/06/15 11:29:36;;;;;;;3.97;2.38;;;35.40;41.70;;;;;;5072008;28;20188;-65
2022/06/15 11:32:26;;;;;;;3.50;2.30;;;35.50;41.00;;;;;;5071939;28;20171;-65
2022/06/15 11:35:07;;;;;;;2.95;2.22;;;35.10;41.00;;;;;;5072006;28;20180;-65
2022/06/15 11:37:51;;;;;;;2.65;2.45;;;35.10;41.70;;;;;;5072007;28;20583;-65
2022/06/15 11:40:17;;;;;;;4.70;1.90;;;35.20;42.00;;;;;;5071655;28;20642;-65
2022/06/15 11:42:49;;;;;;;3.22;2.25;;;35.40;40.90;;;;;;5071917;28;20187;-65
2022/06/15 11:45:16;;;;;;;5.28;2.40;;;35.50;40.20;;;;;;5071859;28;20188;-65
2022/06/15 11:48:19;;;;;;;3.53;1.98;;;35.50;40.90;;;;;;5071817;28;20192;-65
2022/06/15 11:50:58;;;;;;;1.98;1.85;;;35.60;40.60;;;;;;5071707;28;20179;-65
2022/06/15 11:54:10;;;;;;;1.90;1.80;;;35.40;40.50;;;;;;5071816;28;20175;-65
2022/06/15 11:56:52;;;;;;;5.47;2.08;;;35.00;41.70;;;;;;5049338;28;20181;-65
2022/06/15 11:59:32;;;;;;;2.08;1.88;;;34.80;41.10;;;;;;5071327;28;20271;-64
2022/06/15 12:02:16;;;;;;;2.45;2.10;;;34.70;41.00;;;;;;5074068;28;20172;-64
2022/06/15 12:05:00;;;;;;;2.53;2.05;;;34.80;42.10;;;;;;5075384;28;20223;-65
2022/06/15 12:07:47;;;;;;;4.05;2.20;;;35.10;41.70;;;;;;5075534;28;20172;-65
2022/06/15 12:10:27;;;;;;;2.20;2.00;;;35.30;41.70;;;;;;5075514;28;20168;-65
2022/06/15 12:12:59;;;;;;;4.13;2.00;;;35.50;40.20;;;;;;5075316;28;20572;-65
2022/06/15 12:15:57;;;;;;;2.33;2.13;;;35.60;40.60;;;;;;5075522;28;20245;-64
2022/06/15 12:18:38;;;;;;;4.93;2.28;;;35.70;40.40;;;;;;5075280;28;20180;-65
2022/06/15 12:21:04;;;;;;;2.83;2.17;;;35.90;39.70;;;;;;5075162;28;20196;-65
2022/06/15 12:23:44;;;;;;;2.55;2.10;;;35.80;39.80;;;;;;5075212;28;20218;-65
2022/06/15 12:26:26;;;;;;;4.47;2.15;;;35.60;40.00;;;;;;5074950;28;20276;-65
2022/06/15 12:29:19;;;;;;;3.38;1.90;;;35.60;40.10;;;;;;5075019;28;20180;-64
2022/06/15 12:35:13;;;;;;;3.35;2.22;;;35.50;39.70;;;;;;5067755;28;20244;-65
2022/06/15 12:37:55;;;;;;;2.33;2.03;;;35.40;40.90;;;;;;5074939;28;20172;-65
2022/06/15 12:40:43;;;;;;;3.80;2.00;;;35.50;39.30;;;;;;5074917;28;20187;-65
2022/06/15 12:43:11;;;;;;;4.13;2.15;;;35.40;39.50;;;;;;5074698;28;20199;-64
2022/06/15 12:45:43;;;;;;;2.95;1.83;;;35.50;39.10;;;;;;5074692;28;20190;-65
2022/06/15 12:48:27;;;;;;;2.88;2.10;;;35.40;38.20;;;;;;5074733;28;20234;-66
2022/06/15 12:51:08;;;;;;;2.15;1.60;;;35.20;38.90;;;;;;5074643;28;20184;-64
2022/06/15 12:53:50;;;;;;;3.17;1.77;;;34.80;38.00;;;;;;5074750;28;20259;-64
2022/06/15 12:56:57;;;;;;;4.30;1.70;;;34.50;38.20;;;;;;5074764;28;20271;-64
2022/06/15 12:59:27;;;;;;;3.03;1.98;;;34.40;38.40;;;;;;5074642;28;20521;-64
2022/06/15 13:02:01;;;;;;;2.00;1.80;;;34.60;39.20;;;;;;5074531;28;20635;-64
2022/06/15 13:04:36;;;;;;;1.98;1.80;;;34.90;39.30;;;;;;5074480;28;20215;-65
2022/06/15 13:07:19;;;;;;;2.95;2.10;;;35.10;38.50;;;;;;5074403;28;20329;-64
2022/06/15 13:10:07;;;;;;;4.53;1.95;;;34.90;37.70;;;;;;5073178;28;20172;-64
2022/06/15 13:12:39;;;;;;;3.63;1.80;;;34.70;38.90;;;;;;5073388;28;20192;-65
2022/06/15 13:15:25;;;;;;;3.08;1.90;;;34.50;39.50;;;;;;5073153;28;20631;-64
2022/06/15 13:18:12;;;;;;;2.70;1.98;;;34.40;39.40;;;;;;5061274;28;20333;-63
2022/06/15 13:21:00;;;;;;;2.65;1.90;;;34.50;39.70;;;;;;5072056;28;20259;-64
2022/06/15 13:23:38;;;;;;;3.20;1.67;;;34.50;38.80;;;;;;5053873;28;20211;-64
2022/06/15 13:26:22;;;;;;;2.92;2.10;;;34.50;38.70;;;;;;5066819;28;20184;-65
2022/06/15 13:29:01;;;;;;;2.83;1.65;;;34.60;38.80;;;;;;5073574;28;20187;-66
2022/06/15 13:31:48;;;;;;;2.00;1.73;;;34.80;38.80;;;;;;5073568;28;20232;-65
2022/06/15 13:34:38;;;;;;;2.05;1.80;;;35.10;38.00;;;;;;5072611;28;20531;-65